sensor_id;sensor_type;location;lat;lon;timestamp;temperature;humidity
30304;DHT22;17112;48.636;10.152;2023-02-18T00:02:09;13.90;64.30
30304;DHT22;17112;48.636;10.152;2023-02-18T00:04:35;13.90;64.20
30304;DHT22;17112;48.636;10.152;2023-02-18T00:07:00;13.90;64.30
30304;DHT22;17112;48.636;10.152;2023-02-18T00:09:26;13.90;64.20
30304;DHT22;17112;48.636;10.152;2023-02-18T00:11:52;13.90;64.20
30304;DHT22;17112;48.636;10.152;2023-02-18T00:14:17;13.90;64.20
30304;DHT22;17112;48.636;10.152;2023-02-18T00:16:44;13.90;64.20
30304;DHT22;17112;48.636;10.152;2023-02-18T00:19:13;13.90;64.20
30304;DHT22;17112;48.636;10.152;2023-02-18T00:21:39;13.90;64.20
30304;DHT22;17112;48.636;10.152;2023-02-18T00:24:06;13.90;64.10
30304;DHT22;17112;48.636;10.152;2023-02-18T00:26:33;13.90;64.10
30304;DHT22;17112;48.636;10.152;2023-02-18T00:28:59;13.90;64.10
30304;DHT22;17112;48.636;10.152;2023-02-18T00:31:27;13.90;64.20
30304;DHT22;17112;48.636;10.152;2023-02-18T00:33:55;13.90;64.10
30304;DHT22;17112;48.636;10.152;2023-02-18T00:36:22;13.90;64.10
30304;DHT22;17112;48.636;10.152;2023-02-18T00:38:53;13.90;64.10
30304;DHT22;17112;48.636;10.152;2023-02-18T00:41:20;13.80;64.00
30304;DHT22;17112;48.636;10.152;2023-02-18T00:43:47;13.90;64.00
30304;DHT22;17112;48.636;10.152;2023-02-18T00:46:13;13.80;63.80
30304;DHT22;17112;48.636;10.152;2023-02-18T00:48:39;13.80;63.80
30304;DHT22;17112;48.636;10.152;2023-02-18T00:51:05;13.80;63.90
30304;DHT22;17112;48.636;10.152;2023-02-18T00:53:31;13.80;63.80
30304;DHT22;17112;48.636;10.152;2023-02-18T00:55:57;13.80;64.50
30304;DHT22;17112;48.636;10.152;2023-02-18T00:58:23;13.80;63.80
30304;DHT22;17112;48.636;10.152;2023-02-18T01:00:49;13.80;63.90
30304;DHT22;17112;48.636;10.152;2023-02-18T01:03:15;13.80;63.90
30304;DHT22;17112;48.636;10.152;2023-02-18T01:05:41;13.80;63.90
30304;DHT22;17112;48.636;10.152;2023-02-18T01:08:08;13.80;63.90
30304;DHT22;17112;48.636;10.152;2023-02-18T01:10:35;13.80;63.90
30304;DHT22;17112;48.636;10.152;2023-02-18T01:13:01;13.80;64.00
30304;DHT22;17112;48.636;10.152;2023-02-18T01:15:29;13.80;64.00
30304;DHT22;17112;48.636;10.152;2023-02-18T01:17:55;13.80;63.90
30304;DHT22;17112;48.636;10.152;2023-02-18T01:20:21;13.80;63.90
30304;DHT22;17112;48.636;10.152;2023-02-18T01:22:47;13.80;63.80
30304;DHT22;17112;48.636;10.152;2023-02-18T01:25:13;13.80;63.80
30304;DHT22;17112;48.636;10.152;2023-02-18T01:27:39;13.80;63.80
30304;DHT22;17112;48.636;10.152;2023-02-18T01:30:07;13.80;63.80
30304;DHT22;17112;48.636;10.152;2023-02-18T01:32:33;13.80;63.80
30304;DHT22;17112;48.636;10.152;2023-02-18T01:35:04;13.80;63.60
30304;DHT22;17112;48.636;10.152;2023-02-18T01:37:30;13.80;63.40
30304;DHT22;17112;48.636;10.152;2023-02-18T01:39:56;13.80;63.50
30304;DHT22;17112;48.636;10.152;2023-02-18T01:42:25;13.80;63.30
30304;DHT22;17112;48.636;10.152;2023-02-18T01:44:51;13.80;63.40
30304;DHT22;17112;48.636;10.152;2023-02-18T01:47:18;13.80;63.30
30304;DHT22;17112;48.636;10.152;2023-02-18T01:49:47;13.80;64.00
30304;DHT22;17112;48.636;10.152;2023-02-18T01:52:23;13.80;63.20
30304;DHT22;17112;48.636;10.152;2023-02-18T01:54:55;13.90;63.00
30304;DHT22;17112;48.636;10.152;2023-02-18T01:57:34;13.90;62.90
30304;DHT22;17112;48.636;10.152;2023-02-18T02:00:09;13.90;62.80
30304;DHT22;17112;48.636;10.152;2023-02-18T02:02:39;13.90;63.00
30304;DHT22;17112;48.636;10.152;2023-02-18T02:05:07;13.90;62.90
30304;DHT22;17112;48.636;10.152;2023-02-18T02:07:32;13.90;62.90
30304;DHT22;17112;48.636;10.152;2023-02-18T02:09:59;13.90;62.70
30304;DHT22;17112;48.636;10.152;2023-02-18T02:15:31;13.90;62.30
30304;DHT22;17112;48.636;10.152;2023-02-18T02:29:20;13.90;62.50
30304;DHT22;17112;48.636;10.152;2023-02-18T02:35:07;13.90;62.50
30304;DHT22;17112;48.636;10.152;2023-02-18T02:40:22;13.90;62.60
30304;DHT22;17112;48.636;10.152;2023-02-18T02:54:25;13.90;62.50
30304;DHT22;17112;48.636;10.152;2023-02-18T02:59:29;13.80;62.30
30304;DHT22;17112;48.636;10.152;2023-02-18T03:04:46;13.80;62.40
30304;DHT22;17112;48.636;10.152;2023-02-18T03:07:17;13.80;62.20
30304;DHT22;17112;48.636;10.152;2023-02-18T03:18:29;13.90;62.10
30304;DHT22;17112;48.636;10.152;2023-02-18T03:20:57;13.90;61.20
30304;DHT22;17112;48.636;10.152;2023-02-18T03:23:28;13.90;61.90
30304;DHT22;17112;48.636;10.152;2023-02-18T03:25:58;13.90;61.70
30304;DHT22;17112;48.636;10.152;2023-02-18T03:28:27;13.90;61.70
30304;DHT22;17112;48.636;10.152;2023-02-18T03:31:01;13.90;61.80
30304;DHT22;17112;48.636;10.152;2023-02-18T03:33:36;13.90;61.50
30304;DHT22;17112;48.636;10.152;2023-02-18T03:36:03;13.90;61.40
30304;DHT22;17112;48.636;10.152;2023-02-18T03:38:43;13.90;61.40
30304;DHT22;17112;48.636;10.152;2023-02-18T03:41:10;13.90;61.10
30304;DHT22;17112;48.636;10.152;2023-02-18T03:43:35;13.90;61.30
30304;DHT22;17112;48.636;10.152;2023-02-18T03:46:02;13.90;61.40
30304;DHT22;17112;48.636;10.152;2023-02-18T03:48:28;13.90;61.30
30304;DHT22;17112;48.636;10.152;2023-02-18T03:50:54;13.90;61.20
30304;DHT22;17112;48.636;10.152;2023-02-18T03:53:19;13.90;61.10
30304;DHT22;17112;48.636;10.152;2023-02-18T03:55:45;13.90;61.00
30304;DHT22;17112;48.636;10.152;2023-02-18T03:58:11;13.90;61.20
30304;DHT22;17112;48.636;10.152;2023-02-18T04:00:36;13.90;61.10
30304;DHT22;17112;48.636;10.152;2023-02-18T04:03:02;13.90;61.00
30304;DHT22;17112;48.636;10.152;2023-02-18T04:05:28;13.90;61.00
30304;DHT22;17112;48.636;10.152;2023-02-18T04:07:54;13.90;61.00
30304;DHT22;17112;48.636;10.152;2023-02-18T04:10:19;13.90;61.00
30304;DHT22;17112;48.636;10.152;2023-02-18T04:12:47;13.90;61.70
30304;DHT22;17112;48.636;10.152;2023-02-18T04:15:12;13.90;60.90
30304;DHT22;17112;48.636;10.152;2023-02-18T04:17:38;13.90;60.70
30304;DHT22;17112;48.636;10.152;2023-02-18T04:20:05;13.90;60.90
30304;DHT22;17112;48.636;10.152;2023-02-18T04:22:31;13.90;60.90
30304;DHT22;17112;48.636;10.152;2023-02-18T04:24:57;13.90;61.10
30304;DHT22;17112;48.636;10.152;2023-02-18T04:27:23;13.90;61.00
30304;DHT22;17112;48.636;10.152;2023-02-18T04:29:49;13.90;61.00
30304;DHT22;17112;48.636;10.152;2023-02-18T04:32:15;13.90;60.80
30304;DHT22;17112;48.636;10.152;2023-02-18T04:34:41;13.90;60.90
30304;DHT22;17112;48.636;10.152;2023-02-18T04:37:06;13.90;60.90
30304;DHT22;17112;48.636;10.152;2023-02-18T04:39:32;13.90;60.90
30304;DHT22;17112;48.636;10.152;2023-02-18T04:41:57;13.90;60.90
30304;DHT22;17112;48.636;10.152;2023-02-18T04:44:23;13.90;60.60
30304;DHT22;17112;48.636;10.152;2023-02-18T04:46:49;13.90;60.60
30304;DHT22;17112;48.636;10.152;2023-02-18T04:49:14;13.90;60.60
30304;DHT22;17112;48.636;10.152;2023-02-18T04:51:40;13.90;60.20
30304;DHT22;17112;48.636;10.152;2023-02-18T04:54:05;13.90;60.50
30304;DHT22;17112;48.636;10.152;2023-02-18T04:56:31;13.90;60.50
30304;DHT22;17112;48.636;10.152;2023-02-18T04:58:57;13.90;60.50
30304;DHT22;17112;48.636;10.152;2023-02-18T05:01:22;13.90;60.50
30304;DHT22;17112;48.636;10.152;2023-02-18T05:03:48;13.90;60.40
30304;DHT22;17112;48.636;10.152;2023-02-18T05:06:14;13.80;60.40
30304;DHT22;17112;48.636;10.152;2023-02-18T05:08:39;13.80;60.20
30304;DHT22;17112;48.636;10.152;2023-02-18T05:11:08;13.80;60.20
30304;DHT22;17112;48.636;10.152;2023-02-18T05:13:34;13.80;60.00
30304;DHT22;17112;48.636;10.152;2023-02-18T05:16:01;13.80;60.30
30304;DHT22;17112;48.636;10.152;2023-02-18T05:18:26;13.80;59.90
30304;DHT22;17112;48.636;10.152;2023-02-18T05:20:52;13.80;59.90
30304;DHT22;17112;48.636;10.152;2023-02-18T05:23:18;13.80;59.90
30304;DHT22;17112;48.636;10.152;2023-02-18T05:25:45;13.70;59.90
30304;DHT22;17112;48.636;10.152;2023-02-18T05:28:11;13.70;59.80
30304;DHT22;17112;48.636;10.152;2023-02-18T05:30:37;13.70;60.40
30304;DHT22;17112;48.636;10.152;2023-02-18T05:33:03;13.70;59.80
30304;DHT22;17112;48.636;10.152;2023-02-18T05:35:29;13.70;59.80
30304;DHT22;17112;48.636;10.152;2023-02-18T05:37:54;13.70;59.60
30304;DHT22;17112;48.636;10.152;2023-02-18T05:40:20;13.60;59.70
30304;DHT22;17112;48.636;10.152;2023-02-18T05:42:46;13.60;59.70
30304;DHT22;17112;48.636;10.152;2023-02-18T05:45:11;13.60;59.50
30304;DHT22;17112;48.636;10.152;2023-02-18T05:47:37;13.60;59.70
30304;DHT22;17112;48.636;10.152;2023-02-18T05:50:03;13.60;59.70
30304;DHT22;17112;48.636;10.152;2023-02-18T05:52:29;13.60;59.80
30304;DHT22;17112;48.636;10.152;2023-02-18T05:54:55;13.60;59.80
30304;DHT22;17112;48.636;10.152;2023-02-18T05:57:20;13.60;59.80
30304;DHT22;17112;48.636;10.152;2023-02-18T05:59:46;13.60;59.80
30304;DHT22;17112;48.636;10.152;2023-02-18T06:02:12;13.50;59.80
30304;DHT22;17112;48.636;10.152;2023-02-18T06:04:37;13.50;59.90
30304;DHT22;17112;48.636;10.152;2023-02-18T06:07:05;13.50;60.00
30304;DHT22;17112;48.636;10.152;2023-02-18T06:09:30;13.50;60.10
30304;DHT22;17112;48.636;10.152;2023-02-18T06:11:56;13.50;60.20
30304;DHT22;17112;48.636;10.152;2023-02-18T06:14:22;13.50;60.30
30304;DHT22;17112;48.636;10.152;2023-02-18T06:16:47;13.50;60.40
30304;DHT22;17112;48.636;10.152;2023-02-18T06:19:13;13.40;60.40
30304;DHT22;17112;48.636;10.152;2023-02-18T06:21:38;13.40;60.50
30304;DHT22;17112;48.636;10.152;2023-02-18T06:24:04;13.40;60.80
30304;DHT22;17112;48.636;10.152;2023-02-18T06:26:30;13.30;60.80
30304;DHT22;17112;48.636;10.152;2023-02-18T06:28:56;13.30;60.90
30304;DHT22;17112;48.636;10.152;2023-02-18T06:31:22;13.30;61.10
30304;DHT22;17112;48.636;10.152;2023-02-18T06:33:47;13.30;61.20
30304;DHT22;17112;48.636;10.152;2023-02-18T06:36:13;13.30;61.30
30304;DHT22;17112;48.636;10.152;2023-02-18T06:38:40;13.30;61.30
30304;DHT22;17112;48.636;10.152;2023-02-18T06:41:07;13.30;61.40
30304;DHT22;17112;48.636;10.152;2023-02-18T06:43:33;13.30;61.50
30304;DHT22;17112;48.636;10.152;2023-02-18T06:45:59;13.20;61.60
30304;DHT22;17112;48.636;10.152;2023-02-18T06:48:24;13.20;61.70
30304;DHT22;17112;48.636;10.152;2023-02-18T06:50:50;13.10;61.80
30304;DHT22;17112;48.636;10.152;2023-02-18T06:53:16;13.10;61.90
30304;DHT22;17112;48.636;10.152;2023-02-18T06:55:43;13.10;62.10
30304;DHT22;17112;48.636;10.152;2023-02-18T06:58:10;13.00;62.20
30304;DHT22;17112;48.636;10.152;2023-02-18T07:00:36;13.00;62.50
30304;DHT22;17112;48.636;10.152;2023-02-18T07:03:02;12.90;62.70
30304;DHT22;17112;48.636;10.152;2023-02-18T07:05:28;12.90;62.80
30304;DHT22;17112;48.636;10.152;2023-02-18T07:07:54;12.90;62.90
30304;DHT22;17112;48.636;10.152;2023-02-18T07:10:20;12.90;63.20
30304;DHT22;17112;48.636;10.152;2023-02-18T07:12:47;12.80;63.30
30304;DHT22;17112;48.636;10.152;2023-02-18T07:15:13;12.80;63.50
30304;DHT22;17112;48.636;10.152;2023-02-18T07:17:39;12.80;63.80
30304;DHT22;17112;48.636;10.152;2023-02-18T07:20:05;12.80;64.00
30304;DHT22;17112;48.636;10.152;2023-02-18T07:22:31;12.80;64.10
30304;DHT22;17112;48.636;10.152;2023-02-18T07:24:56;12.80;64.10
30304;DHT22;17112;48.636;10.152;2023-02-18T07:27:22;12.80;64.40
30304;DHT22;17112;48.636;10.152;2023-02-18T07:29:48;12.80;64.30
30304;DHT22;17112;48.636;10.152;2023-02-18T07:32:15;12.80;64.30
30304;DHT22;17112;48.636;10.152;2023-02-18T07:34:41;12.80;64.40
30304;DHT22;17112;48.636;10.152;2023-02-18T07:37:07;12.80;64.40
30304;DHT22;17112;48.636;10.152;2023-02-18T07:39:40;12.80;64.30
30304;DHT22;17112;48.636;10.152;2023-02-18T07:42:06;12.90;64.50
30304;DHT22;17112;48.636;10.152;2023-02-18T07:44:32;12.90;64.20
30304;DHT22;17112;48.636;10.152;2023-02-18T07:46:57;13.00;64.20
30304;DHT22;17112;48.636;10.152;2023-02-18T07:49:24;13.00;64.20
30304;DHT22;17112;48.636;10.152;2023-02-18T07:51:50;13.10;64.30
30304;DHT22;17112;48.636;10.152;2023-02-18T07:54:16;13.10;64.20
30304;DHT22;17112;48.636;10.152;2023-02-18T07:56:43;13.20;64.30
30304;DHT22;17112;48.636;10.152;2023-02-18T07:59:09;13.20;64.20
30304;DHT22;17112;48.636;10.152;2023-02-18T08:01:35;13.30;64.10
30304;DHT22;17112;48.636;10.152;2023-02-18T08:04:01;13.30;63.90
30304;DHT22;17112;48.636;10.152;2023-02-18T08:06:37;13.40;64.10
30304;DHT22;17112;48.636;10.152;2023-02-18T08:09:04;13.40;64.20
30304;DHT22;17112;48.636;10.152;2023-02-18T08:11:30;13.50;64.00
30304;DHT22;17112;48.636;10.152;2023-02-18T08:13:56;13.50;63.90
30304;DHT22;17112;48.636;10.152;2023-02-18T08:16:22;13.60;63.90
30304;DHT22;17112;48.636;10.152;2023-02-18T08:18:48;13.60;63.80
30304;DHT22;17112;48.636;10.152;2023-02-18T08:21:15;13.70;63.70
30304;DHT22;17112;48.636;10.152;2023-02-18T08:23:42;13.70;63.50
30304;DHT22;17112;48.636;10.152;2023-02-18T08:26:08;13.80;63.50
30304;DHT22;17112;48.636;10.152;2023-02-18T08:28:34;13.80;63.40
30304;DHT22;17112;48.636;10.152;2023-02-18T08:31:00;13.90;62.80
30304;DHT22;17112;48.636;10.152;2023-02-18T08:33:26;13.90;62.90
30304;DHT22;17112;48.636;10.152;2023-02-18T08:35:53;14.00;63.00
30304;DHT22;17112;48.636;10.152;2023-02-18T08:38:19;14.00;62.40
30304;DHT22;17112;48.636;10.152;2023-02-18T08:40:45;14.10;62.20
30304;DHT22;17112;48.636;10.152;2023-02-18T08:43:12;14.10;62.10
30304;DHT22;17112;48.636;10.152;2023-02-18T08:45:38;14.20;61.90
30304;DHT22;17112;48.636;10.152;2023-02-18T08:48:06;14.20;61.90
30304;DHT22;17112;48.636;10.152;2023-02-18T08:50:32;14.20;61.60
30304;DHT22;17112;48.636;10.152;2023-02-18T08:52:57;14.30;61.40
30304;DHT22;17112;48.636;10.152;2023-02-18T08:55:26;14.30;61.50
30304;DHT22;17112;48.636;10.152;2023-02-18T08:57:52;14.40;61.10
30304;DHT22;17112;48.636;10.152;2023-02-18T09:00:18;14.40;61.10
30304;DHT22;17112;48.636;10.152;2023-02-18T09:02:44;14.50;60.60
30304;DHT22;17112;48.636;10.152;2023-02-18T09:05:11;14.50;60.40
30304;DHT22;17112;48.636;10.152;2023-02-18T09:07:36;14.50;60.40
30304;DHT22;17112;48.636;10.152;2023-02-18T09:10:03;14.60;60.30
30304;DHT22;17112;48.636;10.152;2023-02-18T09:12:29;14.60;60.20
30304;DHT22;17112;48.636;10.152;2023-02-18T09:14:54;14.70;60.10
30304;DHT22;17112;48.636;10.152;2023-02-18T09:17:20;14.80;59.90
30304;DHT22;17112;48.636;10.152;2023-02-18T09:19:46;14.80;59.80
30304;DHT22;17112;48.636;10.152;2023-02-18T09:22:12;14.90;59.80
30304;DHT22;17112;48.636;10.152;2023-02-18T09:24:39;14.90;59.50
30304;DHT22;17112;48.636;10.152;2023-02-18T09:27:05;15.00;59.20
30304;DHT22;17112;48.636;10.152;2023-02-18T09:29:32;15.00;59.20
30304;DHT22;17112;48.636;10.152;2023-02-18T09:32:01;15.00;58.90
30304;DHT22;17112;48.636;10.152;2023-02-18T09:34:27;15.00;58.70
30304;DHT22;17112;48.636;10.152;2023-02-18T09:36:53;15.10;58.80
30304;DHT22;17112;48.636;10.152;2023-02-18T09:39:19;15.10;58.70
30304;DHT22;17112;48.636;10.152;2023-02-18T09:42:00;15.10;58.60
30304;DHT22;17112;48.636;10.152;2023-02-18T09:44:29;15.10;58.50
30304;DHT22;17112;48.636;10.152;2023-02-18T09:47:08;15.10;58.60
30304;DHT22;17112;48.636;10.152;2023-02-18T09:49:39;15.10;58.30
30304;DHT22;17112;48.636;10.152;2023-02-18T09:52:19;15.20;58.70
30304;DHT22;17112;48.636;10.152;2023-02-18T09:54:51;15.20;58.20
30304;DHT22;17112;48.636;10.152;2023-02-18T09:57:27;15.20;58.40
30304;DHT22;17112;48.636;10.152;2023-02-18T09:59:59;15.20;58.30
30304;DHT22;17112;48.636;10.152;2023-02-18T10:02:26;15.20;58.10
30304;DHT22;17112;48.636;10.152;2023-02-18T10:04:52;15.20;58.30
30304;DHT22;17112;48.636;10.152;2023-02-18T10:07:39;15.20;58.00
30304;DHT22;17112;48.636;10.152;2023-02-18T10:10:30;15.20;57.70
30304;DHT22;17112;48.636;10.152;2023-02-18T10:12:58;15.20;57.90
30304;DHT22;17112;48.636;10.152;2023-02-18T10:15:27;15.30;58.10
30304;DHT22;17112;48.636;10.152;2023-02-18T10:17:55;15.30;58.00
30304;DHT22;17112;48.636;10.152;2023-02-18T10:20:24;15.40;57.70
30304;DHT22;17112;48.636;10.152;2023-02-18T10:22:53;15.40;57.80
30304;DHT22;17112;48.636;10.152;2023-02-18T10:25:22;15.50;57.60
30304;DHT22;17112;48.636;10.152;2023-02-18T10:27:51;15.50;57.80
30304;DHT22;17112;48.636;10.152;2023-02-18T10:30:39;15.60;57.80
30304;DHT22;17112;48.636;10.152;2023-02-18T10:33:16;15.60;58.00
30304;DHT22;17112;48.636;10.152;2023-02-18T10:41:07;15.80;57.30
30304;DHT22;17112;48.636;10.152;2023-02-18T10:44:07;15.90;57.10
30304;DHT22;17112;48.636;10.152;2023-02-18T10:51:55;16.00;56.30
30304;DHT22;17112;48.636;10.152;2023-02-18T10:54:26;16.00;56.50
30304;DHT22;17112;48.636;10.152;2023-02-18T10:56:58;16.00;55.90
30304;DHT22;17112;48.636;10.152;2023-02-18T10:59:25;16.00;56.00
30304;DHT22;17112;48.636;10.152;2023-02-18T11:02:00;16.00;56.20
30304;DHT22;17112;48.636;10.152;2023-02-18T11:04:36;16.00;56.10
30304;DHT22;17112;48.636;10.152;2023-02-18T11:07:07;16.00;56.00
30304;DHT22;17112;48.636;10.152;2023-02-18T11:09:42;15.90;55.90
30304;DHT22;17112;48.636;10.152;2023-02-18T11:12:25;15.90;56.00
30304;DHT22;17112;48.636;10.152;2023-02-18T11:17:33;15.90;56.20
30304;DHT22;17112;48.636;10.152;2023-02-18T11:20:02;15.80;56.10
30304;DHT22;17112;48.636;10.152;2023-02-18T11:22:31;15.80;56.10
30304;DHT22;17112;48.636;10.152;2023-02-18T11:25:13;15.80;56.40
30304;DHT22;17112;48.636;10.152;2023-02-18T11:27:44;15.80;56.40
30304;DHT22;17112;48.636;10.152;2023-02-18T11:32:50;15.90;56.70
30304;DHT22;17112;48.636;10.152;2023-02-18T11:35:19;15.90;56.80
30304;DHT22;17112;48.636;10.152;2023-02-18T11:37:46;15.90;56.40
30304;DHT22;17112;48.636;10.152;2023-02-18T11:42:48;15.90;56.30
30304;DHT22;17112;48.636;10.152;2023-02-18T11:45:28;16.00;57.00
30304;DHT22;17112;48.636;10.152;2023-02-18T11:47:59;16.00;56.40
30304;DHT22;17112;48.636;10.152;2023-02-18T11:50:30;16.00;56.70
30304;DHT22;17112;48.636;10.152;2023-02-18T11:52:57;16.10;56.90
30304;DHT22;17112;48.636;10.152;2023-02-18T11:55:26;16.10;56.40
30304;DHT22;17112;48.636;10.152;2023-02-18T11:58:03;16.20;56.10
30304;DHT22;17112;48.636;10.152;2023-02-18T12:00:37;16.30;55.90
30304;DHT22;17112;48.636;10.152;2023-02-18T12:05:37;16.50;55.60
30304;DHT22;17112;48.636;10.152;2023-02-18T12:08:24;16.60;55.20
30304;DHT22;17112;48.636;10.152;2023-02-18T12:11:00;16.70;55.20
30304;DHT22;17112;48.636;10.152;2023-02-18T12:13:41;16.70;53.90
30304;DHT22;17112;48.636;10.152;2023-02-18T12:41:01;16.00;53.30
30304;DHT22;17112;48.636;10.152;2023-02-18T12:55:01;15.90;53.90
30304;DHT22;17112;48.636;10.152;2023-02-18T12:57:52;15.80;53.80
30304;DHT22;17112;48.636;10.152;2023-02-18T13:03:38;15.70;53.20
30304;DHT22;17112;48.636;10.152;2023-02-18T13:17:41;15.60;53.90
30304;DHT22;17112;48.636;10.152;2023-02-18T13:22:56;15.60;53.80
30304;DHT22;17112;48.636;10.152;2023-02-18T13:25:22;15.60;54.00
30304;DHT22;17112;48.636;10.152;2023-02-18T13:28:00;15.70;54.20
30304;DHT22;17112;48.636;10.152;2023-02-18T13:39:13;15.80;54.30
30304;DHT22;17112;48.636;10.152;2023-02-18T13:41:46;15.80;54.10
30304;DHT22;17112;48.636;10.152;2023-02-18T13:46:52;15.90;54.10
30304;DHT22;17112;48.636;10.152;2023-02-18T13:49:26;15.80;54.00
30304;DHT22;17112;48.636;10.152;2023-02-18T13:51:57;15.80;54.20
30304;DHT22;17112;48.636;10.152;2023-02-18T13:54:28;15.80;54.00
30304;DHT22;17112;48.636;10.152;2023-02-18T13:57:04;15.80;54.10
30304;DHT22;17112;48.636;10.152;2023-02-18T13:59:47;15.80;54.20
30304;DHT22;17112;48.636;10.152;2023-02-18T14:10:24;15.80;54.40
30304;DHT22;17112;48.636;10.152;2023-02-18T14:22:47;15.80;54.30
30304;DHT22;17112;48.636;10.152;2023-02-18T14:27:52;15.80;54.60
30304;DHT22;17112;48.636;10.152;2023-02-18T14:32:49;15.80;54.50
30304;DHT22;17112;48.636;10.152;2023-02-18T14:35:41;15.70;54.50
30304;DHT22;17112;48.636;10.152;2023-02-18T14:46:08;15.70;54.60
30304;DHT22;17112;48.636;10.152;2023-02-18T14:48:40;15.70;54.60
30304;DHT22;17112;48.636;10.152;2023-02-18T14:51:07;15.70;54.70
30304;DHT22;17112;48.636;10.152;2023-02-18T14:53:40;15.70;54.90
30304;DHT22;17112;48.636;10.152;2023-02-18T14:56:09;15.70;54.90
30304;DHT22;17112;48.636;10.152;2023-02-18T14:58:38;15.70;54.70
30304;DHT22;17112;48.636;10.152;2023-02-18T15:01:27;15.80;54.90
30304;DHT22;17112;48.636;10.152;2023-02-18T15:03:54;15.70;54.60
30304;DHT22;17112;48.636;10.152;2023-02-18T15:07:00;15.80;54.80
30304;DHT22;17112;48.636;10.152;2023-02-18T15:09:26;15.80;54.60
30304;DHT22;17112;48.636;10.152;2023-02-18T15:12:05;15.80;54.50
30304;DHT22;17112;48.636;10.152;2023-02-18T15:14:38;15.70;54.40
30304;DHT22;17112;48.636;10.152;2023-02-18T15:17:07;15.70;54.20
30304;DHT22;17112;48.636;10.152;2023-02-18T15:19:39;15.70;54.20
30304;DHT22;17112;48.636;10.152;2023-02-18T15:22:14;15.70;54.10
30304;DHT22;17112;48.636;10.152;2023-02-18T15:24:40;15.70;54.20
30304;DHT22;17112;48.636;10.152;2023-02-18T15:27:27;15.80;54.40
30304;DHT22;17112;48.636;10.152;2023-02-18T15:30:20;15.80;54.30
30304;DHT22;17112;48.636;10.152;2023-02-18T15:32:52;15.80;53.90
30304;DHT22;17112;48.636;10.152;2023-02-18T15:35:20;15.80;53.80
30304;DHT22;17112;48.636;10.152;2023-02-18T15:37:53;15.80;53.90
30304;DHT22;17112;48.636;10.152;2023-02-18T15:40:21;15.80;53.80
30304;DHT22;17112;48.636;10.152;2023-02-18T15:42:50;15.80;53.80
30304;DHT22;17112;48.636;10.152;2023-02-18T15:45:24;15.80;53.80
30304;DHT22;17112;48.636;10.152;2023-02-18T15:47:56;15.70;53.50
30304;DHT22;17112;48.636;10.152;2023-02-18T15:50:51;15.70;53.60
30304;DHT22;17112;48.636;10.152;2023-02-18T15:53:18;15.70;53.30
30304;DHT22;17112;48.636;10.152;2023-02-18T15:55:49;15.70;53.50
30304;DHT22;17112;48.636;10.152;2023-02-18T15:58:27;15.70;53.60
30304;DHT22;17112;48.636;10.152;2023-02-18T16:00:56;15.60;53.30
30304;DHT22;17112;48.636;10.152;2023-02-18T16:03:26;15.60;53.20
30304;DHT22;17112;48.636;10.152;2023-02-18T16:08:55;15.60;53.00
30304;DHT22;17112;48.636;10.152;2023-02-18T16:11:23;15.60;53.50
30304;DHT22;17112;48.636;10.152;2023-02-18T16:13:50;15.50;53.30
30304;DHT22;17112;48.636;10.152;2023-02-18T16:16:42;15.50;53.20
30304;DHT22;17112;48.636;10.152;2023-02-18T16:19:23;15.40;53.40
30304;DHT22;17112;48.636;10.152;2023-02-18T16:21:49;15.40;53.50
30304;DHT22;17112;48.636;10.152;2023-02-18T16:24:25;15.40;53.60
30304;DHT22;17112;48.636;10.152;2023-02-18T16:26:53;15.30;53.60
30304;DHT22;17112;48.636;10.152;2023-02-18T16:31:51;15.30;53.80
30304;DHT22;17112;48.636;10.152;2023-02-18T16:34:17;15.20;53.70
30304;DHT22;17112;48.636;10.152;2023-02-18T16:36:43;15.30;53.90
30304;DHT22;17112;48.636;10.152;2023-02-18T16:39:29;15.20;53.90
30304;DHT22;17112;48.636;10.152;2023-02-18T16:41:56;15.20;53.90
30304;DHT22;17112;48.636;10.152;2023-02-18T16:44:22;15.20;54.10
30304;DHT22;17112;48.636;10.152;2023-02-18T16:46:47;15.20;54.20
30304;DHT22;17112;48.636;10.152;2023-02-18T16:49:13;15.10;54.20
30304;DHT22;17112;48.636;10.152;2023-02-18T16:51:39;15.10;54.20
30304;DHT22;17112;48.636;10.152;2023-02-18T16:54:10;15.10;54.30
30304;DHT22;17112;48.636;10.152;2023-02-18T16:56:37;15.10;54.30
30304;DHT22;17112;48.636;10.152;2023-02-18T16:59:04;15.00;54.40
30304;DHT22;17112;48.636;10.152;2023-02-18T17:01:35;15.00;54.40
30304;DHT22;17112;48.636;10.152;2023-02-18T17:04:03;15.00;54.50
30304;DHT22;17112;48.636;10.152;2023-02-18T17:06:31;15.00;54.60
30304;DHT22;17112;48.636;10.152;2023-02-18T17:08:58;15.00;54.60
30304;DHT22;17112;48.636;10.152;2023-02-18T17:11:34;14.90;54.70
30304;DHT22;17112;48.636;10.152;2023-02-18T17:14:00;14.90;54.70
30304;DHT22;17112;48.636;10.152;2023-02-18T17:16:29;14.90;54.80
30304;DHT22;17112;48.636;10.152;2023-02-18T17:18:55;14.90;54.80
30304;DHT22;17112;48.636;10.152;2023-02-18T17:21:22;14.90;55.50
30304;DHT22;17112;48.636;10.152;2023-02-18T17:23:49;14.90;54.90
30304;DHT22;17112;48.636;10.152;2023-02-18T17:28:43;14.80;55.00
30304;DHT22;17112;48.636;10.152;2023-02-18T17:31:14;14.80;55.00
30304;DHT22;17112;48.636;10.152;2023-02-18T17:33:42;14.80;55.10
30304;DHT22;17112;48.636;10.152;2023-02-18T17:36:09;14.80;55.00
30304;DHT22;17112;48.636;10.152;2023-02-18T17:38:35;14.80;55.00
30304;DHT22;17112;48.636;10.152;2023-02-18T17:41:00;14.70;55.00
30304;DHT22;17112;48.636;10.152;2023-02-18T17:43:26;14.80;55.10
30304;DHT22;17112;48.636;10.152;2023-02-18T17:45:54;14.80;55.10
30304;DHT22;17112;48.636;10.152;2023-02-18T17:48:20;14.70;55.10
30304;DHT22;17112;48.636;10.152;2023-02-18T17:50:46;14.70;55.10
30304;DHT22;17112;48.636;10.152;2023-02-18T17:53:12;14.70;55.10
30304;DHT22;17112;48.636;10.152;2023-02-18T17:55:39;14.70;55.10
30304;DHT22;17112;48.636;10.152;2023-02-18T17:58:05;14.70;55.00
30304;DHT22;17112;48.636;10.152;2023-02-18T18:00:35;14.70;55.10
30304;DHT22;17112;48.636;10.152;2023-02-18T18:03:02;14.70;55.10
30304;DHT22;17112;48.636;10.152;2023-02-18T18:05:36;14.70;55.10
30304;DHT22;17112;48.636;10.152;2023-02-18T18:08:03;14.70;55.20
30304;DHT22;17112;48.636;10.152;2023-02-18T18:10:32;14.60;55.10
30304;DHT22;17112;48.636;10.152;2023-02-18T18:13:02;14.60;55.10
30304;DHT22;17112;48.636;10.152;2023-02-18T18:15:35;14.60;55.20
30304;DHT22;17112;48.636;10.152;2023-02-18T18:18:01;14.60;55.20